FW2210 Weather Reports


time (UTC)temp
C
wind
direction
speed
KPH
gust
KPH
rain 1hr
cm
rain 24hr
cm
rain mn
cm
humidity
%
barometer
mb
20200229101815 10 67 4.8 6.4 0.00 0.00 0.00 74 1016.6
20200229100816 10 67 4.8 6.4 0.00 0.00 0.00 74 1016.8
20200229095815 10 67 3.2 4.8 0.00 0.00 0.00 74 1017.0
20200229094820 11 90 3.2 4.8 0.00 0.00 0.00 73 1017.0
20200229093816 11 112 4.8 4.8 0.00 0.00 0.00 71 1017.0
20200229092816 11 135 4.8 9.7 0.00 0.00 0.00 73 1017.1
20200229091815 11 112 3.2 3.2 0.00 0.00 0.00 74 1017.1
20200229090815 11 112 1.6 1.6 0.00 0.00 0.00 74 1017.3
20200229085815 11 90 3.2 4.8 0.00 0.00 0.00 74 1017.3
20200229084815 11 67 1.6 3.2 0.00 0.00 0.00 75 1017.3
20200229083815 11 67 1.6 3.2 0.00 0.00 0.00 74 1017.4
20200229082815 11 90 3.2 3.2 0.00 0.00 0.00 73 1017.6
20200229081815 11 90 4.8 4.8 0.00 0.00 0.00 72 1017.6
20200229080815 12 67 3.2 4.8 0.00 0.00 0.00 74 1017.6
20200229075815 12 67 3.2 6.4 0.00 0.00 0.00 72 1017.7
20200229074815 13 112 3.2 3.2 0.00 0.00 0.00 71 1017.8
20200229073815 13 112 3.2 4.8 0.00 0.00 0.00 71 1017.9
20200229072815 13 112 3.2 4.8 0.00 0.00 0.00 76 1018.0
20200229071816 12 112 1.6 4.8 0.00 0.00 0.00 77 1018.1
20200229070817 12 0.0 0.0 0.00 0.00 0.00 73 1018.3
20200229065817 11 0.0 0.0 0.00 0.00 0.00 72 1018.3
20200229064818 11 0.0 0.0 0.00 0.00 0.00 77 1018.2
20200229063817 11 0.0 0.0 0.00 0.00 0.00 81 1018.5
20200229062817 11 0.0 0.0 0.00 0.00 0.00 80 1018.5
20200229061817 11 0.0 0.0 0.00 0.00 0.00 74 1018.6
20200229060817 11 0.0 0.0 0.00 0.00 0.00 73 1018.6
20200229055817 11 0.0 0.0 0.00 0.00 0.00 72 1018.7
20200229054817 11 0.0 0.0 0.00 0.00 0.00 71 1018.3
20200229053817 11 0.0 0.0 0.00 0.00 0.00 74 1018.5
20200229052817 12 0.0 0.0 0.00 0.00 0.00 75 1018.5
20200229051815 12 0.0 0.0 0.00 0.00 0.00 71 1018.6
20200229050815 12 0.0 0.0 0.00 0.00 0.00 71 1018.5
20200229045816 12 0.0 0.0 0.00 0.00 0.00 71 1018.3
20200229044817 12 0.0 0.0 0.00 0.00 0.00 67 1018.2
20200229043817 13 67 1.6 3.2 0.00 0.00 0.00 66 1018.1
20200229042817 13 0.0 0.0 0.00 0.00 0.00 68 1018.2
20200229041818 13 0.0 0.0 0.00 0.00 0.00 70 1018.3
20200229040818 13 0.0 1.6 0.00 0.00 0.00 69 1018.3
20200229035818 15 22 1.6 3.2 0.00 0.00 0.00 65 1018.3
20200229034819 15 0.0 0.0 0.00 0.00 0.00 63 1018.2
20200229033819 15 0.0 0.0 0.00 0.00 0.00 64 1018.2
20200229032818 16 0.0 0.0 0.00 0.00 0.00 61 1018.4
20200229031818 16 0.0 0.0 0.00 0.00 0.00 58 1018.2
20200229030817 17 247 1.6 3.2 0.00 0.00 0.00 54 1018.2
20200229025819 17 225 3.2 4.8 0.00 0.00 0.00 52 1018.1
20200229024820 17 225 4.8 8.0 0.00 0.00 0.00 47 1018.0
20200229023820 17 0.0 0.0 0.00 0.00 0.00 44 1017.9
20200229022817 18 0.0 0.0 0.00 0.00 0.00 46 1017.7
20200229021816 18 0.0 0.0 0.00 0.00 0.00 41 1017.5
20200229020817 19 0.0 0.0 0.00 0.00 0.00 39 1017.6
20200229015817 20 225 3.2 3.2 0.00 0.00 0.00 37 1017.5
20200229014817 20 225 1.6 1.6 0.00 0.00 0.00 39 1017.5
20200229013817 21 0.0 0.0 0.00 0.00 0.00 35 1017.4
20200229012818 22 225 4.8 4.8 0.00 0.00 0.00 30 1017.5
20200229011819 22 202 6.4 8.0 0.00 0.00 0.00 28 1017.6
20200229010817 23 202 6.4 8.0 0.00 0.00 0.00 26 1017.4
20200229005817 24 180 8.0 9.7 0.00 0.00 0.00 25 1017.5
20200229004816 25 202 6.4 9.7 0.00 0.00 0.00 25 1017.4
20200229003817 25 225 6.4 8.0 0.00 0.00 0.00 23 1017.5
20200229002816 25 225 6.4 11.3 0.00 0.00 0.00 22 1017.5
20200229001816 25 247 6.4 8.0 0.00 0.00 0.00 21 1017.5
20200229000816 25 247 8.0 9.7 0.00 0.00 0.00 21 1017.5
20200228235817 25 180 9.7 12.9 0.00 0.00 0.00 21 1017.5
20200228234816 25 202 8.0 12.9 0.00 0.00 0.00 20 1017.5
20200228233817 25 202 8.0 11.3 0.00 0.00 0.00 21 1017.8
20200228232816 26 202 16.1 20.9 0.00 0.00 0.00 21 1018.1
20200228231818 26 202 12.9 17.7 0.00 0.00 0.00 21 1018.1
20200228230817 26 202 14.5 17.7 0.00 0.00 0.00 22 1018.0
20200228225816 26 225 14.5 17.7 0.00 0.00 0.00 23 1018.1
20200228224904 26 225 17.7 22.5 0.00 0.00 0.00 26 1018.0
20200228223816 27 225 17.7 24.1 0.00 0.00 0.00 29 1018.1
20200228222816 27 247 17.7 22.5 0.00 0.00 0.00 26 1018.1
20200228221816 27 247 16.1 24.1 0.00 0.00 0.00 21 1017.8
20200228220816 27 225 19.3 29.0 0.00 0.00 0.00 22 1018.0
20200228215816 28 247 16.1 20.9 0.00 0.00 0.00 22 1017.8
20200228214816 28 225 11.3 14.5 0.00 0.00 0.00 19 1017.6
20200228213816 28 247 16.1 22.5 0.00 0.00 0.00 18 1017.6
20200228212816 28 202 9.7 12.9 0.00 0.00 0.00 17 1017.7
20200228211816 28 225 12.9 17.7 0.00 0.00 0.00 16 1017.6
20200228210816 28 202 4.8 8.0 0.00 0.00 0.00 18 1017.5
20200228205818 28 202 11.3 16.1 0.00 0.00 0.00 17 1017.5
20200228204926 28 202 11.3 14.5 0.00 0.00 0.00 17 1017.6
20200228203816 28 247 3.2 6.4 0.00 0.00 0.00 16 1017.4
20200228200816 27 270 3.2 6.4 0.00 0.00 0.00 17 1017.7
20200228195819 27 292 1.6 4.8 0.00 0.00 0.00 17 1017.9
20200228194817 27 247 6.4 9.7 0.00 0.00 0.00 18 1018.2
20200228193816 27 180 6.4 8.0 0.00 0.00 0.00 18 1018.4
20200228192826 26 292 1.6 3.2 0.00 0.00 0.00 19 1018.5
20200228191816 26 180 6.4 8.0 0.00 0.00 0.00 19 1018.6
20200228190816 26 67 3.2 6.4 0.00 0.00 0.00 20 1019.0
20200228185816 25 45 4.8 6.4 0.00 0.00 0.00 20 1019.1
20200228184817 25 90 12.9 16.1 0.00 0.00 0.00 19 1019.4
20200228183816 23 90 12.9 14.5 0.00 0.00 0.00 21 1019.4
20200228182816 23 90 14.5 17.7 0.00 0.00 0.00 21 1019.3
20200228181816 23 90 14.5 19.3 0.00 0.00 0.00 22 1019.3
20200228180816 23 90 12.9 16.1 0.00 0.00 0.00 24 1019.3
20200228175816 23 90 14.5 17.7 0.00 0.00 0.00 22 1019.2
20200228174816 23 90 12.9 19.3 0.00 0.00 0.00 23 1019.3
20200228173816 23 90 11.3 14.5 0.00 0.00 0.00 24 1019.3
20200228172816 22 90 12.9 16.1 0.00 0.00 0.00 26 1019.3
20200228171816 21 90 12.9 17.7 0.00 0.00 0.00 27 1019.3
20200228170816 21 90 12.9 17.7 0.00 0.00 0.00 28 1019.4
20200228165816 20 90 12.9 16.1 0.00 0.00 0.00 31 1019.3
20200228164816 20 90 12.9 14.5 0.00 0.00 0.00 32 1019.4
20200228163816 19 90 11.3 14.5 0.00 0.00 0.00 33 1019.3
20200228162816 19 90 12.9 14.5 0.00 0.00 0.00 34 1019.2
20200228161816 18 90 12.9 16.1 0.00 0.00 0.00 33 1019.3
20200228160816 18 90 16.1 19.3 0.00 0.00 0.00 34 1019.1
20200228155816 18 90 12.9 17.7 0.00 0.00 0.00 36 1019.2
20200228154816 17 90 14.5 19.3 0.00 0.00 0.00 37 1019.1
20200228153817 16 90 11.3 14.5 0.00 0.00 0.00 42 1018.9
20200228152816 15 90 9.7 12.9 0.00 0.00 0.00 45 1018.8
20200228151816 15 90 12.9 16.1 0.00 0.00 0.00 44 1018.8
20200228150816 15 90 9.7 12.9 0.00 0.00 0.00 45 1018.7
20200228145817 14 90 8.0 11.3 0.00 0.00 0.00 47 1018.7
20200228144816 13 90 9.7 14.5 0.00 0.00 0.00 48 1018.5
20200228143816 12 90 8.0 11.3 0.00 0.00 0.00 51 1018.3
20200228142816 12 90 4.8 9.7 0.00 0.00 0.00 54 1018.2
20200228141815 11 90 4.8 6.4 0.00 0.00 0.00 60 1018.1
20200228140815 11 67 1.6 3.2 0.00 0.00 0.00 63 1018.0
20200228135815 11 0.0 1.6 0.00 0.00 0.00 62 1018.0
20200228134815 11 67 1.6 1.6 0.00 0.00 0.00 60 1017.9
20200228133816 11 90 1.6 3.2 0.00 0.00 0.00 63 1017.8
20200228132815 11 90 1.6 3.2 0.00 0.00 0.00 58 1017.9
20200228131815 11 67 1.6 3.2 0.00 0.00 0.00 64 1017.8
20200228130815 10 0.0 0.0 0.00 0.00 0.00 66 1017.9
20200228125815 11 0.0 0.0 0.00 0.00 0.00 71 1017.8
20200228124815 11 67 3.2 3.2 0.00 0.00 0.00 65 1017.7
20200228123815 11 67 1.6 1.6 0.00 0.00 0.00 71 1017.8
20200228122816 11 0.0 1.6 0.00 0.00 0.00 72 1017.7
20200228121816 11 90 3.2 4.8 0.00 0.00 0.00 63 1017.8
20200228120815 11 0.0 0.0 0.00 0.00 0.00 64 1017.6
20200228115816 11 0.0 0.0 0.00 0.00 0.00 66 1017.5
20200228114815 11 0.0 0.0 0.00 0.00 0.00 63 1017.7
20200228113816 11 0.0 0.0 0.00 0.00 0.00 64 1017.6
20200228112815 11 0.0 0.0 0.00 0.00 0.00 61 1017.6
20200228111816 11 45 1.6 4.8 0.00 0.00 0.00 62 1017.6
20200228110816 11 67 3.2 3.2 0.00 0.00 0.00 63 1017.7
20200228105815 12 67 3.2 4.8 0.00 0.00 0.00 59 1017.8
20200228104815 12 67 3.2 4.8 0.00 0.00 0.00 59 1017.7
20200228103815 12 67 1.6 3.2 0.00 0.00 0.00 58 1017.7
20200228102815 12 90 3.2 6.4 0.00 0.00 0.00 58 1017.8